Kristin D — C6XA6 — position and weather

sailwx.info

Track history (hours):
 
Tides and Currents Weather Stations Pressure Air Temp Water Temp Dewpoint Dewpoint Depression Visibility Wind Speed Wind Dir Waves Ship Positions

Kristin D

Last reported at 2014-Jul-25 06:32 UTC. Time now 2014-Jul-25 06:49 UTC.
Position N 54°09' E 012°07'.

Length 90 m; draft 3.7 m.

Type: Cargo ship. MMSI: 311003700.

Date/timePositionNaut miles runAvg speedWind from/ knotsBaromVisibWave heightAir tempDewpointWater temp
2014-Jul-25 06:32N 54°09' E 012°07'0 0.0
2014-Jul-25 05:32N 54°09' E 012°07'0 0.0
2014-Jul-25 04:31N 54°09' E 012°07'0 0.0
2014-Jul-25 03:28N 54°09' E 012°07'0 0.0
2014-Jul-25 02:28N 54°09' E 012°07'0 0.0
2014-Jul-25 01:28N 54°09' E 012°07'0 0.0
2014-Jul-25 00:13N 54°09' E 012°07'0 0.0
2014-Jul-24 23:31N 54°09' E 012°07'0 0.0
2014-Jul-24 22:31N 54°09' E 012°07'0 0.0
2014-Jul-24 21:31N 54°09' E 012°07'0 0.0
2014-Jul-24 20:31N 54°09' E 012°07'0 0.0
2014-Jul-24 19:31N 54°09' E 012°07'0 0.3
2014-Jul-24 18:31N 54°09' E 012°06'0 0.0
2014-Jul-24 17:31N 54°09' E 012°06'0 0.0
2014-Jul-24 16:28N 54°09' E 012°06'0 0.0
2014-Jul-24 15:31N 54°09' E 012°06'0 0.0
2014-Jul-24 14:31N 54°09' E 012°06'0 0.0
2014-Jul-24 13:31N 54°09' E 012°06'0 0.0
2014-Jul-24 12:31N 54°09' E 012°06'0 0.0
2014-Jul-24 11:31N 54°09' E 012°06'0 0.0
2014-Jul-24 10:31N 54°09' E 012°06'0 0.0
2014-Jul-24 09:28N 54°09' E 012°06'0 0.0
2014-Jul-24 08:28N 54°09' E 012°06'0 0.0
2014-Jul-24 07:31N 54°09' E 012°06'0 0.0
2014-Jul-24 06:31N 54°09' E 012°06'0 0.0
2014-Jul-24 05:31N 54°09' E 012°06'0 0.0
2014-Jul-24 04:31N 54°09' E 012°06'0 0.0
2014-Jul-24 03:31N 54°09' E 012°06'0 0.0
2014-Jul-24 02:31N 54°09' E 012°06'0 0.0
2014-Jul-24 01:28N 54°09' E 012°06'0 0.0
2014-Jul-23 23:07N 54°09' E 012°06'0 0.0
2014-Jul-23 22:31N 54°09' E 012°06'0 0.0
2014-Jul-23 21:28N 54°09' E 012°06'0 0.0
2014-Jul-23 20:19N 54°09' E 012°06'0 0.0
2014-Jul-23 19:31N 54°09' E 012°06'0 0.0
2014-Jul-23 18:28N 54°09' E 012°06'0 0.0
2014-Jul-23 17:31N 54°09' E 012°06'0 0.0
2014-Jul-23 16:31N 54°09' E 012°06'0 0.0
2014-Jul-23 15:13N 54°09' E 012°06'0 0.0
2014-Jul-23 14:31N 54°09' E 012°06'0 0.0
2014-Jul-23 13:31N 54°09' E 012°06'0 0.0
2014-Jul-23 12:31N 54°09' E 012°06'0 0.0
2014-Jul-23 11:34N 54°09' E 012°06'0 0.0
2014-Jul-23 10:13N 54°09' E 012°06'0 0.0
2014-Jul-23 09:33N 54°09' E 012°06'0 0.0
2014-Jul-23 08:30N 54°09' E 012°06'0 0.0
2014-Jul-23 07:33N 54°09' E 012°06'2 1.9
2014-Jul-23 06:33N 54°11' E 012°05'1110.6
2014-Jul-23 05:33N 54°18' E 011°52'9 9.1
2014-Jul-23 04:33N 54°24' E 011°40'9 9.3
2014-Jul-23 03:33N 54°29' E 011°27'1010.0
2014-Jul-23 02:33N 54°35' E 011°12'10 9.8
2014-Jul-23 01:33N 54°40' E 010°58'10 9.8
2014-Jul-23 00:33N 54°49' E 010°52'1010.3
2014-Jul-22 23:33N 54°58' E 010°59'20 9.6
2014-Jul-22 21:25N 55°19' E 011°02'1910.3
2014-Jul-22 19:33N 55°36' E 010°48'1010.1
2014-Jul-22 18:33N 55°46' E 010°48'1110.7
2014-Jul-22 17:31N 55°56' E 010°57'1010.6
2014-Jul-22 16:33N 56°05' E 011°05'1210.8
2014-Jul-22 15:29N 56°17' E 011°05'1010.4
2014-Jul-22 14:33N 56°26' E 011°02'30 7.4
2014-Jul-22 10:27N 56°27' E 010°08'28 0.7
2014-Jul-20 18:10N 56°32' E 010°58'1012.4
2014-Jul-20 17:20N 56°28' E 011°15'911.8
2014-Jul-20 16:33N 56°25' E 011°31'1211.5
2014-Jul-20 15:32N 56°21' E 011°51'1211.8
2014-Jul-20 14:33N 56°16' E 012°10'1212.3
2014-Jul-20 13:33N 56°09' E 012°28'1313.2
2014-Jul-20 12:33N 55°59' E 012°42'1212.4
2014-Jul-20 11:33N 55°46' E 012°42'1312.7
2014-Jul-20 10:33N 55°33' E 012°42'1211.9
2014-Jul-20 09:33N 55°21' E 012°42'1110.6
2014-Jul-20 08:33N 55°16' E 012°57'1212.2
2014-Jul-20 07:33N 55°15' E 013°19'1212.3
2014-Jul-20 06:33N 55°15' E 013°40'1212.4
2014-Jul-20 05:33N 55°14' E 014°02'1111.4
2014-Jul-20 04:33N 55°18' E 014°21'1212.0
2014-Jul-20 03:33N 55°26' E 014°35'1211.6
2014-Jul-20 02:33N 55°32' E 014°53'1211.7
2014-Jul-20 01:33N 55°38' E 015°10'1211.9
2014-Jul-20 00:33N 55°44' E 015°29'1211.9
2014-Jul-19 23:33N 55°50' E 015°47'1212.0
2014-Jul-19 22:33N 55°56' E 016°05'1211.9
2014-Jul-19 21:33N 56°02' E 016°24'1211.8
2014-Jul-19 20:33N 56°09' E 016°42'1211.8
2014-Jul-19 19:33N 56°16' E 016°59'1111.5
2014-Jul-19 18:33N 56°22' E 017°15'1211.5
2014-Jul-19 17:33N 56°29' E 017°32'1211.5
2014-Jul-19 16:33N 56°36' E 017°50'1111.4
2014-Jul-19 15:33N 56°42' E 018°06'1111.3
2014-Jul-19 14:33N 56°49' E 018°23'1111.3
2014-Jul-19 13:33N 56°54' E 018°41'1111.3
2014-Jul-19 12:33N 56°59' E 018°60'1111.1
2014-Jul-19 11:32N 57°04' E 019°19'1111.0
2014-Jul-19 10:33N 57°09' E 019°37'1111.2
2014-Jul-19 09:33N 57°14' E 019°55'1211.5
2014-Jul-19 08:32N 57°19' E 020°14'  
Track history (hours):
 
Tides and Currents Weather Stations Pressure Air Temp Water Temp Dewpoint Dewpoint Depression Visibility Wind Speed Wind Dir Waves Ship Positions

Kristin D

Last reported at 2014-Jul-25 06:32 UTC. Time now 2014-Jul-25 06:49 UTC.
Position N 54°09' E 012°07'.

Length 90 m; draft 3.7 m.

Type: Cargo ship. MMSI: 311003700.

Date/timePositionNaut miles runAvg speedWind from/ knotsBaromVisibWave heightAir tempDewpointWater temp
2014-Jul-25 06:32N 54°09' E 012°07'0 0.0
2014-Jul-25 05:32N 54°09' E 012°07'0 0.0
2014-Jul-25 04:31N 54°09' E 012°07'0 0.0
2014-Jul-25 03:28N 54°09' E 012°07'0 0.0
2014-Jul-25 02:28N 54°09' E 012°07'0 0.0
2014-Jul-25 01:28N 54°09' E 012°07'0 0.0
2014-Jul-25 00:13N 54°09' E 012°07'0 0.0
2014-Jul-24 23:31N 54°09' E 012°07'0 0.0
2014-Jul-24 22:31N 54°09' E 012°07'0 0.0
2014-Jul-24 21:31N 54°09' E 012°07'0 0.0
2014-Jul-24 20:31N 54°09' E 012°07'0 0.0
2014-Jul-24 19:31N 54°09' E 012°07'0 0.3
2014-Jul-24 18:31N 54°09' E 012°06'0 0.0
2014-Jul-24 17:31N 54°09' E 012°06'0 0.0
2014-Jul-24 16:28N 54°09' E 012°06'0 0.0
2014-Jul-24 15:31N 54°09' E 012°06'0 0.0
2014-Jul-24 14:31N 54°09' E 012°06'0 0.0
2014-Jul-24 13:31N 54°09' E 012°06'0 0.0
2014-Jul-24 12:31N 54°09' E 012°06'0 0.0
2014-Jul-24 11:31N 54°09' E 012°06'0 0.0
2014-Jul-24 10:31N 54°09' E 012°06'0 0.0
2014-Jul-24 09:28N 54°09' E 012°06'0 0.0
2014-Jul-24 08:28N 54°09' E 012°06'0 0.0
2014-Jul-24 07:31N 54°09' E 012°06'0 0.0
2014-Jul-24 06:31N 54°09' E 012°06'0 0.0
2014-Jul-24 05:31N 54°09' E 012°06'0 0.0
2014-Jul-24 04:31N 54°09' E 012°06'0 0.0
2014-Jul-24 03:31N 54°09' E 012°06'0 0.0
2014-Jul-24 02:31N 54°09' E 012°06'0 0.0
2014-Jul-24 01:28N 54°09' E 012°06'0 0.0
2014-Jul-23 23:07N 54°09' E 012°06'0 0.0
2014-Jul-23 22:31N 54°09' E 012°06'0 0.0
2014-Jul-23 21:28N 54°09' E 012°06'0 0.0
2014-Jul-23 20:19N 54°09' E 012°06'0 0.0
2014-Jul-23 19:31N 54°09' E 012°06'0 0.0
2014-Jul-23 18:28N 54°09' E 012°06'0 0.0
2014-Jul-23 17:31N 54°09' E 012°06'0 0.0
2014-Jul-23 16:31N 54°09' E 012°06'0 0.0
2014-Jul-23 15:13N 54°09' E 012°06'0 0.0
2014-Jul-23 14:31N 54°09' E 012°06'0 0.0
2014-Jul-23 13:31N 54°09' E 012°06'0 0.0
2014-Jul-23 12:31N 54°09' E 012°06'0 0.0
2014-Jul-23 11:34N 54°09' E 012°06'0 0.0
2014-Jul-23 10:13N 54°09' E 012°06'0 0.0
2014-Jul-23 09:33N 54°09' E 012°06'0 0.0
2014-Jul-23 08:30N 54°09' E 012°06'0 0.0
2014-Jul-23 07:33N 54°09' E 012°06'2 1.9
2014-Jul-23 06:33N 54°11' E 012°05'1110.6
2014-Jul-23 05:33N 54°18' E 011°52'9 9.1
2014-Jul-23 04:33N 54°24' E 011°40'9 9.3
2014-Jul-23 03:33N 54°29' E 011°27'1010.0
2014-Jul-23 02:33N 54°35' E 011°12'10 9.8
2014-Jul-23 01:33N 54°40' E 010°58'10 9.8
2014-Jul-23 00:33N 54°49' E 010°52'1010.3
2014-Jul-22 23:33N 54°58' E 010°59'20 9.6
2014-Jul-22 21:25N 55°19' E 011°02'1910.3
2014-Jul-22 19:33N 55°36' E 010°48'1010.1
2014-Jul-22 18:33N 55°46' E 010°48'1110.7
2014-Jul-22 17:31N 55°56' E 010°57'1010.6
2014-Jul-22 16:33N 56°05' E 011°05'1210.8
2014-Jul-22 15:29N 56°17' E 011°05'1010.4
2014-Jul-22 14:33N 56°26' E 011°02'30 7.4
2014-Jul-22 10:27N 56°27' E 010°08'28 0.7
2014-Jul-20 18:10N 56°32' E 010°58'1012.4
2014-Jul-20 17:20N 56°28' E 011°15'911.8
2014-Jul-20 16:33N 56°25' E 011°31'1211.5
2014-Jul-20 15:32N 56°21' E 011°51'1211.8
2014-Jul-20 14:33N 56°16' E 012°10'1212.3
2014-Jul-20 13:33N 56°09' E 012°28'1313.2
2014-Jul-20 12:33N 55°59' E 012°42'1212.4
2014-Jul-20 11:33N 55°46' E 012°42'1312.7
2014-Jul-20 10:33N 55°33' E 012°42'1211.9
2014-Jul-20 09:33N 55°21' E 012°42'1110.6
2014-Jul-20 08:33N 55°16' E 012°57'1212.2
2014-Jul-20 07:33N 55°15' E 013°19'1212.3
2014-Jul-20 06:33N 55°15' E 013°40'1212.4
2014-Jul-20 05:33N 55°14' E 014°02'1111.4
2014-Jul-20 04:33N 55°18' E 014°21'1212.0
2014-Jul-20 03:33N 55°26' E 014°35'1211.6
2014-Jul-20 02:33N 55°32' E 014°53'1211.7
2014-Jul-20 01:33N 55°38' E 015°10'1211.9
2014-Jul-20 00:33N 55°44' E 015°29'1211.9
2014-Jul-19 23:33N 55°50' E 015°47'1212.0
2014-Jul-19 22:33N 55°56' E 016°05'1211.9
2014-Jul-19 21:33N 56°02' E 016°24'1211.8
2014-Jul-19 20:33N 56°09' E 016°42'1211.8
2014-Jul-19 19:33N 56°16' E 016°59'1111.5
2014-Jul-19 18:33N 56°22' E 017°15'1211.5
2014-Jul-19 17:33N 56°29' E 017°32'1211.5
2014-Jul-19 16:33N 56°36' E 017°50'1111.4
2014-Jul-19 15:33N 56°42' E 018°06'1111.3
2014-Jul-19 14:33N 56°49' E 018°23'1111.3
2014-Jul-19 13:33N 56°54' E 018°41'1111.3
2014-Jul-19 12:33N 56°59' E 018°60'1111.1
2014-Jul-19 11:32N 57°04' E 019°19'1111.0
2014-Jul-19 10:33N 57°09' E 019°37'1111.2
2014-Jul-19 09:33N 57°14' E 019°55'1211.5
2014-Jul-19 08:32N 57°19' E 020°14'  

Dump ship's entire track history